Terminal Aerodrome Forecast
Issued by NWS

Home | Current Version | Previous Version | Graphics & Text | Print | Product List | Glossary On
Versions: 1 2 3 4 5 6 7 8 9 10 11 12 13 14 15 16 17
084
FTUS42 KMHX 121127
TAFOAJ
TAF
KOAJ 121127Z 1212/1312 04007KT P6SM BKN070
     FM121500 04005KT 4SM -SN OVC020
     FM121800 07005KT 2SM -FZRAPL BR OVC009
     FM122100 02005KT 3SM BR OVC005
     FM130500 29004KT P6SM SCT010
      AMD LTD TO CLD VIS AND WIND=

USA.gov is the U.S. government's official web portal to all federal, state and local government web resources and services.